Airfield :
LOGIN :

Register | Disclaimer

   EN    FR    IT 

 










Legend :    VFR   Marginal VFR   IFR   Intensive IFR   Very Intensive IFR
Visi :
Ceiling :
>= 8 km
>= 3000ft
5 to 8 km
1000 to 3000 ft
1500m to 5 km
500 to 1000 ft
800 to 1500m
200 to 500 ft
< 800m
< 200 ft
Symbols :   Thunderstorms  Fog  Heavy snow  Heavy precipitations  Wind > 20 kt
SIGMETs :     Misc.  Thunderstorms  Icing  Turbulence  Mountain Waves  Volcanic Ashes







- Airport Elevation : 779 ft
- IATA code : CMF
- Download approach charts


LFLB - Chambery / Aix-Les-Bains

CURRENT METAR :
  • 250730Z AUTO 35006KT 320V020 3800 BR FEW040 BKN060 08/06 Q1022 BECMG 8000 NSW

EXPIRED METARs :
  • 250700Z AUTO VRB02KT 3400 BR FEW037 BKN058 BKN240 06/05 Q1022 BECMG 36012KT 8000 NSW
  • 250630Z AUTO 28001KT 4000 BR FEW056 03/02 Q1022 BECMG 36012KT 8000 NSW
  • 250600Z AUTO VRB01KT 4100 BR SCT054 03/02 Q1023 BECMG 36012KT
  • 250530Z AUTO 21002KT 4000 BR BKN050 03/02 Q1022
  • 250500Z AUTO VRB01KT 5000 BR FEW048 03/02 Q1022
  • 250430Z AUTO 24002KT 5000 BR NSC 04/03 Q1022

TAF TAF LFLB
Valid from the 25 at 06:00 until the 26 at 06:00 UTC


250500Z 2506/2606 VRB02KT 8000 SCT030
TEMPO 2506/2508 4000 BR
BECMG 2507/2510 36012KT
TEMPO 2514/2606 36020G30KT
No reported NOTAMs for that airfield.



MET'MAP, your aeronautical weather chart ! - Copyright ORBIFLY December 2007 - Disclaimer

ORBIFLY MET'MAP TEAM :

Programming & Development : Alexandra Zaïnal
Concept & Development : Baudouin d'Aumeries
Co-Development & Prog : Marc-Olivier Méhu
Technical & hardware support : Manuel Goepfert

Contact : metmap@orbifly.com




SOURCES & CREDITS :

   NOAA